»·PEaware :: AAY3 KFAT-KLAS

AAY3 :: KFAT-KLAS

FLIGHT INFORMATION

Flight Status: Arrived
Operator:
Allegiant Air
More flights by this operator :: More flights under this callsign
Pilot: Patricio R. (14780)
Aircraft: AIRBUS A320
(A320)
More flights by this aircraft type
Origin: KFAT Fresno Yosemite Intl
United States
Destination: KLAS McCarran Intl
United States
More flights between these airports :: More routes between these airports
Route: +YOSE3 CZQ OAL BTY SUNST4
File this flight plan on PilotEdge
Remarks:
Altitude:
(Current/Filed)
31,000ft
Speed:
(Current/Filed)
469kts
Departed: 19-Aug-18 10:15 AM
Arrived: 19-Aug-18 11:06 AM
Distance/Time
Traveled:
224nm/0:51
Distance/Time
To Go:
Arrived

Flight Plot

Page will automatically refresh every two minutes.

Flight plan parsing failed; only flown route is shown


Map Options




Map Legend


Flown Route
Filed Route
Departure Airport
Arrival Airport
Navaid (VOR, NDB)
Fix

Horizontal Profiles

Position Reports

Time Latitude Longitude Heading Altitude Ground
Speed
19-Aug-18 09:54 36.771389 -119.717759 305 334ft 0kts
19-Aug-18 09:55 36.771389 -119.717759 305 334ft 0kts
19-Aug-18 09:56 36.771389 -119.717759 305 334ft 0kts
19-Aug-18 09:57 36.771389 -119.717759 305 334ft 0kts
19-Aug-18 09:58 36.771389 -119.717759 305 334ft 0kts
19-Aug-18 09:59 36.771389 -119.717759 305 334ft 0kts
19-Aug-18 10:00 36.771389 -119.717759 305 334ft 0kts
19-Aug-18 10:01 36.771389 -119.717759 305 334ft 0kts
19-Aug-18 10:02 36.771389 -119.717759 305 334ft 0kts
19-Aug-18 10:03 36.771389 -119.717759 305 334ft 0kts
19-Aug-18 10:04 36.771389 -119.717759 305 334ft 0kts
19-Aug-18 10:05 36.771389 -119.717759 305 334ft 0kts
19-Aug-18 10:06 36.771389 -119.717759 305 334ft 0kts
19-Aug-18 10:07 36.771389 -119.717759 305 334ft 0kts
19-Aug-18 10:08 36.771345 -119.717683 305 334ft 2kts
19-Aug-18 10:09 36.770894 -119.717300 24 333ft 2kts
19-Aug-18 10:10 36.770806 -119.717372 34 333ft 0kts
19-Aug-18 10:11 36.771446 -119.716804 35 334ft 15kts
19-Aug-18 10:12 36.773612 -119.718377 305 335ft 13kts
19-Aug-18 10:13 36.775221 -119.721199 305 336ft 18kts
19-Aug-18 10:14 36.778774 -119.727445 304 338ft 20kts
19-Aug-18 10:15 36.781721 -119.732567 306 336ft 16kts
19-Aug-18 10:16 36.780821 -119.728516 124 338ft 86kts
19-Aug-18 10:17 36.750242 -119.674755 126 3066ft 193kts
19-Aug-18 10:18 36.719951 -119.621597 125 5214ft 259kts
19-Aug-18 10:19 36.716162 -119.537024 44 8677ft 293kts
19-Aug-18 10:20 36.787630 -119.485814 49 10607ft 322kts
19-Aug-18 10:21 36.853993 -119.393671 48 12177ft 383kts
19-Aug-18 10:22 36.926025 -119.294328 49 14689ft 397kts
19-Aug-18 10:23 37.001355 -119.190096 48 16986ft 411kts
19-Aug-18 10:24 37.078731 -119.082670 47 19032ft 423kts
19-Aug-18 10:25 37.158064 -118.972144 47 20827ft 435kts
19-Aug-18 10:26 37.239679 -118.858042 47 22502ft 446kts
19-Aug-18 10:27 37.322394 -118.739203 55 23914ft 459kts
19-Aug-18 10:28 37.354109 -118.584382 88 25180ft 471kts
19-Aug-18 10:29 37.358331 -118.418273 88 26435ft 480kts
19-Aug-18 10:30 37.362741 -118.253858 88 27531ft 489kts
19-Aug-18 10:31 37.367075 -118.083161 88 28935ft 488kts
19-Aug-18 10:32 37.371289 -117.913491 88 29173ft 486kts
19-Aug-18 10:33 37.375629 -117.743639 88 29175ft 487kts
19-Aug-18 10:34 37.379789 -117.573527 88 29174ft 486kts
19-Aug-18 10:35 37.383989 -117.403782 87 29229ft 486kts
19-Aug-18 10:36 37.346990 -117.246058 131 29294ft 480kts
19-Aug-18 10:37 37.243540 -117.143025 146 29293ft 476kts
19-Aug-18 10:38 37.136013 -117.046500 146 29293ft 476kts
19-Aug-18 10:39 37.028377 -116.950159 146 29110ft 476kts
19-Aug-18 10:40 36.920973 -116.854415 146 29119ft 476kts
19-Aug-18 10:41 36.815063 -116.759995 143 29119ft 477kts
19-Aug-18 10:42 36.724455 -116.638903 132 29120ft 480kts
19-Aug-18 10:43 36.636919 -116.514300 132 27638ft 479kts
19-Aug-18 10:44 36.549226 -116.389997 131 24624ft 476kts
19-Aug-18 10:45 36.463657 -116.269105 132 21891ft 463kts
19-Aug-18 10:46 36.379844 -116.151134 131 19188ft 449kts
19-Aug-18 10:47 36.299718 -116.038729 132 17155ft 417kts
19-Aug-18 10:48 36.227760 -115.938027 132 16341ft 365kts
19-Aug-18 10:49 36.180468 -115.837253 112 15476ft 327kts
19-Aug-18 10:50 36.147794 -115.735622 112 14413ft 312kts
19-Aug-18 10:51 36.116053 -115.637283 112 13360ft 306kts
19-Aug-18 10:52 36.084593 -115.540056 112 12385ft 303kts
19-Aug-18 10:53 36.053434 -115.444025 112 11423ft 300kts
19-Aug-18 10:54 36.029390 -115.351785 95 10725ft 273kts
19-Aug-18 10:55 36.022756 -115.259510 96 9667ft 268kts
19-Aug-18 10:56 36.016280 -115.169097 95 8663ft 263kts
19-Aug-18 10:57 36.010388 -115.081966 95 8080ft 243kts
19-Aug-18 10:58 36.005426 -114.999019 94 8065ft 241kts
19-Aug-18 10:59 36.000491 -114.916399 94 7995ft 239kts
19-Aug-18 11:00 36.003880 -114.836028 50 7918ft 238kts
19-Aug-18 11:01 36.053712 -114.846632 293 7448ft 201kts
19-Aug-18 11:02 36.071882 -114.903037 286 6156ft 169kts
19-Aug-18 11:03 36.073993 -114.960967 270 4637ft 169kts
19-Aug-18 11:04 36.073853 -115.018377 271 3780ft 158kts
19-Aug-18 11:05 36.073754 -115.070003 268 2971ft 148kts
19-Aug-18 11:06 36.073627 -115.119895 271 2171ft 143kts
19-Aug-18 11:07 36.074252 -115.149533 298 2121ft 37kts
19-Aug-18 11:08 36.075378 -115.151365 331 2126ft 0kts
19-Aug-18 11:09 36.076727 -115.152142 334 2126ft 14kts
19-Aug-18 11:10 36.077432 -115.152559 335 2126ft 1kts
19-Aug-18 11:11 36.080979 -115.154453 3 2125ft 15kts
19-Aug-18 11:12 36.082451 -115.153322 38 2118ft 0kts

Navigation Log

Ident Type
Flight plan parsing failed, navigation log unavailable